createdAt,value
2023-01-13T00:02:16.777Z,86.60
2023-01-13T00:04:49.594Z,86.33
2023-01-13T00:07:22.009Z,86.89
2023-01-13T00:09:54.455Z,86.71
2023-01-13T00:12:27.056Z,86.73
2023-01-13T00:14:59.496Z,86.85
2023-01-13T00:17:32.048Z,87.86
2023-01-13T00:20:04.718Z,87.98
2023-01-13T00:22:37.856Z,87.71
2023-01-13T00:25:11.126Z,87.21
2023-01-13T00:27:43.728Z,88.07
2023-01-13T00:30:19.131Z,88.40
2023-01-13T00:32:51.727Z,87.74
2023-01-13T00:35:24.352Z,87.49
2023-01-13T00:37:56.717Z,87.45
2023-01-13T00:40:29.219Z,87.31
2023-01-13T00:43:19.205Z,87.41
2023-01-13T00:45:52.581Z,87.29
2023-01-13T00:48:26.902Z,87.32
2023-01-13T00:51:00.829Z,86.91
2023-01-13T00:53:37.895Z,87.44
2023-01-13T00:56:16.624Z,88.05
2023-01-13T00:58:51.995Z,88.54
2023-01-13T01:01:25.614Z,88.33
2023-01-13T01:03:58.357Z,88.24
2023-01-13T01:06:31.695Z,88.28
2023-01-13T01:09:04.599Z,88.09
2023-01-13T01:11:37.944Z,87.58
2023-01-13T01:14:11.767Z,88.01
2023-01-13T01:16:44.516Z,87.89
2023-01-13T01:19:18.805Z,88.39
2023-01-13T01:21:51.276Z,88.57
2023-01-13T01:24:24.323Z,88.34
2023-01-13T01:26:57.451Z,88.85
2023-01-13T01:29:29.913Z,89.34
2023-01-13T01:32:02.375Z,88.98
2023-01-13T01:34:35.771Z,88.80
2023-01-13T01:37:08.505Z,88.73
2023-01-13T01:39:40.901Z,88.13
2023-01-13T01:42:35.261Z,87.67
2023-01-13T01:45:19.327Z,88.39
2023-01-13T01:47:56.456Z,89.16
2023-01-13T01:50:31.088Z,89.89
2023-01-13T01:53:09.992Z,89.43
2023-01-13T01:55:42.761Z,89.62
2023-01-13T01:58:21.322Z,90.26
2023-01-13T02:00:53.890Z,90.24
2023-01-13T02:03:26.866Z,89.68
2023-01-13T02:05:59.409Z,89.16
2023-01-13T02:08:32.347Z,89.71
2023-01-13T02:11:04.940Z,89.28
2023-01-13T02:13:37.303Z,88.82
2023-01-13T02:16:18.451Z,89.60
2023-01-13T02:18:57.824Z,89.62
2023-01-13T02:21:56.661Z,88.61
2023-01-13T02:24:56.746Z,88.47
2023-01-13T02:27:55.419Z,88.61
2023-01-13T02:30:57.807Z,88.56
2023-01-13T02:33:44.900Z,89.53
2023-01-13T02:36:26.077Z,89.81
2023-01-13T02:39:04.454Z,89.35
2023-01-13T02:41:59.298Z,89.22
2023-01-13T02:44:37.360Z,88.82
2023-01-13T02:47:16.069Z,89.04
2023-01-13T02:49:53.900Z,88.69
2023-01-13T02:52:31.864Z,89.11
2023-01-13T02:55:08.912Z,88.60
2023-01-13T02:57:43.396Z,88.74
2023-01-13T03:00:19.152Z,88.67
2023-01-13T03:02:54.856Z,89.23
2023-01-13T03:05:31.835Z,89.84
2023-01-13T03:08:23.902Z,89.54
2023-01-13T03:11:08.872Z,88.72
2023-01-13T03:14:02.043Z,88.60
2023-01-13T03:16:45.909Z,88.53
2023-01-13T03:19:32.398Z,88.76
2023-01-13T03:22:08.375Z,89.40
2023-01-13T03:24:47.522Z,89.24
2023-01-13T03:27:26.260Z,88.64
2023-01-13T03:30:03.469Z,88.05
2023-01-13T03:32:39.950Z,87.32
2023-01-13T03:35:17.246Z,87.37
2023-01-13T03:37:53.917Z,87.25
2023-01-13T03:40:31.136Z,87.22
2023-01-13T03:43:37.549Z,88.04
2023-01-13T03:46:16.967Z,87.98
2023-01-13T03:48:53.018Z,88.21
2023-01-13T03:51:30.878Z,87.78
2023-01-13T03:54:09.078Z,87.10
2023-01-13T03:56:44.001Z,86.98
2023-01-13T03:59:21.692Z,86.70
2023-01-13T04:02:02.833Z,86.68
2023-01-13T04:04:42.287Z,86.49
2023-01-13T04:07:21.988Z,86.69
2023-01-13T04:09:57.074Z,86.32
2023-01-13T04:12:52.368Z,86.14
2023-01-13T04:15:28.609Z,86.76
2023-01-13T04:18:12.718Z,86.93
2023-01-13T04:20:46.703Z,86.42
2023-01-13T04:23:20.309Z,86.51
2023-01-13T04:25:53.515Z,86.82
2023-01-13T04:28:27.055Z,86.85
2023-01-13T04:30:59.471Z,86.96
2023-01-13T04:33:32.001Z,86.20
2023-01-13T04:36:04.389Z,86.29
2023-01-13T04:38:36.818Z,86.56
2023-01-13T04:41:09.985Z,86.72
2023-01-13T04:43:42.524Z,86.19
2023-01-13T04:46:15.517Z,86.27
2023-01-13T04:48:48.709Z,86.43
2023-01-13T04:51:21.127Z,87.48
2023-01-13T04:53:53.639Z,87.15
2023-01-13T04:56:26.091Z,86.50
2023-01-13T04:58:58.463Z,87.32
2023-01-13T05:01:30.856Z,87.57
2023-01-13T05:04:03.387Z,87.55
2023-01-13T05:06:35.909Z,86.96
2023-01-13T05:09:08.334Z,87.39
2023-01-13T05:11:58.514Z,87.43
2023-01-13T05:14:48.686Z,87.86
2023-01-13T05:17:24.271Z,87.66
2023-01-13T05:19:56.874Z,87.33
2023-01-13T05:22:46.680Z,87.34
2023-01-13T05:25:24.691Z,87.49
2023-01-13T05:27:58.907Z,87.01
2023-01-13T05:30:33.929Z,86.81
2023-01-13T05:33:06.442Z,87.21
2023-01-13T05:35:40.759Z,87.04
2023-01-13T05:38:14.305Z,86.83
2023-01-13T05:41:07.411Z,86.12
2023-01-13T05:43:39.927Z,85.91
2023-01-13T05:46:13.483Z,86.20
2023-01-13T05:48:47.484Z,86.00
2023-01-13T05:51:26.266Z,85.46
2023-01-13T05:53:59.304Z,84.83
2023-01-13T05:56:32.144Z,85.11
2023-01-13T05:59:04.918Z,85.43
2023-01-13T06:01:37.463Z,85.97
2023-01-13T06:04:09.831Z,85.89
2023-01-13T06:06:43.551Z,85.65
2023-01-13T06:09:18.656Z,85.71
2023-01-13T06:11:53.615Z,85.20
2023-01-13T06:14:26.168Z,85.53
2023-01-13T06:16:58.709Z,85.55
2023-01-13T06:19:32.226Z,85.49
2023-01-13T06:22:09.920Z,85.14
2023-01-13T06:24:43.177Z,84.93
2023-01-13T06:27:19.101Z,85.31
2023-01-13T06:29:51.605Z,85.18
2023-01-13T06:32:28.287Z,85.06
2023-01-13T06:35:05.648Z,85.20
2023-01-13T06:37:39.205Z,85.30
2023-01-13T06:40:16.750Z,85.11
2023-01-13T06:43:07.673Z,84.82
2023-01-13T06:45:40.455Z,84.55
2023-01-13T06:48:13.442Z,84.25
2023-01-13T06:50:47.177Z,84.10
2023-01-13T06:53:26.268Z,83.66
2023-01-13T06:55:58.629Z,83.64
2023-01-13T06:58:31.800Z,83.65
2023-01-13T07:01:05.108Z,83.97
2023-01-13T07:03:37.618Z,83.99
2023-01-13T07:06:10.538Z,84.17
2023-01-13T07:08:44.343Z,84.19
2023-01-13T07:11:16.650Z,83.96
2023-01-13T07:14:09.414Z,84.07
2023-01-13T07:16:44.496Z,83.85
2023-01-13T07:19:34.868Z,83.57
2023-01-13T07:22:07.838Z,83.28
2023-01-13T07:24:40.538Z,83.27
2023-01-13T07:27:12.820Z,83.13
2023-01-13T07:29:45.348Z,83.33
2023-01-13T07:32:17.684Z,83.37
2023-01-13T07:34:50.082Z,83.52
2023-01-13T07:37:22.549Z,83.54
2023-01-13T07:39:54.923Z,83.48
2023-01-13T07:42:44.659Z,83.28
2023-01-13T07:45:17.213Z,83.40
2023-01-13T07:47:52.523Z,83.47
2023-01-13T07:50:25.179Z,83.34
2023-01-13T07:53:00.575Z,83.57
2023-01-13T07:55:33.402Z,83.27
2023-01-13T07:58:06.490Z,83.63
2023-01-13T08:00:39.592Z,83.59
2023-01-13T08:03:11.893Z,83.67
2023-01-13T08:05:44.421Z,83.53
2023-01-13T08:08:17.362Z,83.60
2023-01-13T08:10:49.805Z,83.55
2023-01-13T08:13:22.525Z,83.26
2023-01-13T08:16:00.465Z,83.44
2023-01-13T08:18:34.516Z,83.63
2023-01-13T08:21:09.873Z,83.34
2023-01-13T08:23:43.131Z,82.95
2023-01-13T08:26:18.436Z,83.04
2023-01-13T08:28:50.782Z,83.31
2023-01-13T08:31:23.417Z,83.11
2023-01-13T08:34:01.893Z,83.04
2023-01-13T08:36:34.704Z,82.60
2023-01-13T08:39:15.203Z,82.70
2023-01-13T08:41:58.797Z,82.75
2023-01-13T08:44:33.381Z,83.20
2023-01-13T08:47:49.973Z,83.22
2023-01-13T08:50:31.735Z,82.93
2023-01-13T08:53:22.402Z,83.00
2023-01-13T08:56:17.486Z,82.90
2023-01-13T08:59:25.613Z,82.89
2023-01-13T09:02:07.194Z,82.88
2023-01-13T09:04:48.861Z,82.92
2023-01-13T09:07:21.821Z,82.61
2023-01-13T09:09:56.278Z,82.69
2023-01-13T09:12:46.738Z,83.28
2023-01-13T09:15:19.745Z,83.49
2023-01-13T09:17:52.233Z,82.83
2023-01-13T09:20:24.883Z,82.36
2023-01-13T09:22:57.257Z,82.36
2023-01-13T09:25:30.795Z,82.30
2023-01-13T09:28:04.993Z,81.99
2023-01-13T09:30:37.549Z,82.08
2023-01-13T09:33:27.733Z,81.98
2023-01-13T09:36:02.357Z,81.96
2023-01-13T09:38:35.344Z,81.69
2023-01-13T09:41:32.497Z,81.44
2023-01-13T09:44:08.685Z,81.63
2023-01-13T09:46:48.326Z,81.35
2023-01-13T09:49:24.038Z,81.22
2023-01-13T09:52:05.036Z,81.37
2023-01-13T09:54:43.616Z,81.48
2023-01-13T09:57:18.216Z,81.57
2023-01-13T09:59:51.784Z,81.13
2023-01-13T10:02:32.272Z,81.59
2023-01-13T10:05:23.788Z,82.36
2023-01-13T10:08:04.654Z,82.48
2023-01-13T10:10:43.246Z,82.24
2023-01-13T10:13:21.693Z,81.82
2023-01-13T10:16:06.725Z,80.94
2023-01-13T10:18:43.925Z,80.76
2023-01-13T10:21:35.034Z,81.31
2023-01-13T10:24:16.547Z,81.48
2023-01-13T10:26:56.009Z,81.40
2023-01-13T10:29:30.391Z,81.36
2023-01-13T10:32:11.994Z,81.17
2023-01-13T10:34:51.487Z,80.81
2023-01-13T10:37:27.074Z,81.14
2023-01-13T10:40:02.758Z,80.45
2023-01-13T10:42:35.104Z,80.99
2023-01-13T10:45:20.510Z,80.95
2023-01-13T10:48:07.895Z,80.78
2023-01-13T10:50:41.835Z,80.50
2023-01-13T10:53:24.552Z,81.26
2023-01-13T10:56:06.350Z,80.74
2023-01-13T10:58:38.880Z,80.52
2023-01-13T11:01:25.960Z,82.52
2023-01-13T11:03:58.992Z,83.88
2023-01-13T11:06:34.155Z,83.26
2023-01-13T11:09:20.243Z,84.23
2023-01-13T11:11:56.001Z,85.09
2023-01-13T11:14:39.814Z,85.21
2023-01-13T11:17:38.656Z,85.68
2023-01-13T11:20:21.941Z,85.88
2023-01-13T11:22:56.950Z,85.61
2023-01-13T11:25:35.265Z,85.43
2023-01-13T11:28:31.700Z,85.95
2023-01-13T11:31:11.891Z,86.33
2023-01-13T11:33:49.635Z,86.55
2023-01-13T11:36:25.693Z,87.09
2023-01-13T11:39:04.844Z,87.62
2023-01-13T11:41:46.661Z,87.81
2023-01-13T11:44:24.609Z,88.19
2023-01-13T11:46:57.592Z,87.25
2023-01-13T11:49:33.803Z,86.74
2023-01-13T11:52:16.803Z,86.20
2023-01-13T11:55:06.273Z,87.01
2023-01-13T11:57:56.065Z,87.04
2023-01-13T12:00:36.925Z,86.38
2023-01-13T12:03:27.859Z,86.66
2023-01-13T12:06:10.040Z,86.25
2023-01-13T12:09:12.047Z,86.58
2023-01-13T12:12:17.302Z,86.04
2023-01-13T12:15:00.470Z,85.98
2023-01-13T12:17:40.513Z,86.12
2023-01-13T12:20:31.185Z,86.30
2023-01-13T12:23:08.803Z,86.10
2023-01-13T12:25:46.586Z,85.40
2023-01-13T12:28:24.408Z,85.69
2023-01-13T12:31:02.101Z,85.23
2023-01-13T12:33:49.857Z,85.44
2023-01-13T12:36:28.760Z,85.79
2023-01-13T12:39:14.875Z,85.71
2023-01-13T12:42:12.558Z,85.23
2023-01-13T12:45:08.430Z,85.62
2023-01-13T12:47:43.739Z,85.05
2023-01-13T12:50:44.478Z,85.18
2023-01-13T12:53:38.707Z,85.01
2023-01-13T12:56:31.819Z,85.02
2023-01-13T12:59:36.877Z,85.16
2023-01-13T13:02:38.787Z,85.30
2023-01-13T13:05:51.352Z,85.35
2023-01-13T13:08:40.895Z,84.84
2023-01-13T13:11:41.281Z,85.00
2023-01-13T13:14:15.781Z,84.16
2023-01-13T13:16:53.407Z,84.40
2023-01-13T13:19:50.187Z,84.97
2023-01-13T13:22:51.913Z,84.88
2023-01-13T13:25:27.081Z,84.98
2023-01-13T13:28:22.939Z,85.62
2023-01-13T13:31:17.266Z,85.28
2023-01-13T13:34:10.534Z,84.36
2023-01-13T13:37:03.568Z,84.17
2023-01-13T13:39:54.915Z,84.13
2023-01-13T13:42:52.201Z,84.13
2023-01-13T13:45:44.797Z,84.13
2023-01-13T13:48:26.843Z,83.82
2023-01-13T13:51:02.495Z,83.91
2023-01-13T13:53:37.691Z,84.56
2023-01-13T13:56:20.778Z,84.82
2023-01-13T13:58:53.593Z,85.35
2023-01-13T14:01:29.829Z,85.10
2023-01-13T14:04:13.780Z,85.30
2023-01-13T14:06:58.218Z,85.10
2023-01-13T14:09:41.358Z,85.05
2023-01-13T14:12:20.780Z,86.21
2023-01-13T14:14:57.088Z,86.08
2023-01-13T14:17:31.368Z,85.58
2023-01-13T14:20:06.284Z,84.47
2023-01-13T14:22:38.929Z,84.31
2023-01-13T14:25:30.633Z,84.61
2023-01-13T14:28:18.525Z,85.58
2023-01-13T14:30:52.519Z,85.76
2023-01-13T14:33:34.110Z,85.77
2023-01-13T14:36:18.999Z,85.02
2023-01-13T14:39:12.303Z,84.43
2023-01-13T14:41:50.776Z,84.46
2023-01-13T14:44:27.019Z,84.65
2023-01-13T14:47:03.029Z,83.91
2023-01-13T14:49:39.841Z,83.33
2023-01-13T14:52:19.030Z,83.58
2023-01-13T14:54:53.509Z,83.30
2023-01-13T14:57:32.014Z,83.09
2023-01-13T15:00:19.769Z,82.81
2023-01-13T15:03:07.331Z,82.82
2023-01-13T15:05:51.325Z,82.41
2023-01-13T15:08:40.384Z,82.12
2023-01-13T15:11:25.432Z,81.90
2023-01-13T15:14:02.699Z,81.56
2023-01-13T15:16:36.897Z,81.38
2023-01-13T15:19:11.472Z,81.57
2023-01-13T15:21:43.812Z,80.24
2023-01-13T15:24:16.809Z,80.31
2023-01-13T15:26:49.352Z,80.63
2023-01-13T15:29:24.273Z,80.42
2023-01-13T15:31:56.822Z,79.50
2023-01-13T15:34:29.561Z,78.79
2023-01-13T15:37:01.968Z,78.86
2023-01-13T15:39:34.971Z,78.89
2023-01-13T15:42:24.916Z,78.77
2023-01-13T15:45:14.809Z,78.54
2023-01-13T15:47:48.356Z,78.59
2023-01-13T15:50:23.169Z,78.68
2023-01-13T15:52:53.976Z,78.50
2023-01-13T15:55:31.695Z,78.38
2023-01-13T15:58:04.483Z,78.29
2023-01-13T16:00:37.062Z,78.00
2023-01-13T16:03:12.550Z,78.69
2023-01-13T16:05:46.372Z,78.00
2023-01-13T16:08:21.007Z,78.06
2023-01-13T16:10:53.652Z,78.56
2023-01-13T16:13:26.000Z,78.33
2023-01-13T16:16:00.391Z,78.38
2023-01-13T16:18:40.477Z,78.45
2023-01-13T16:21:15.155Z,78.22
2023-01-13T16:23:46.108Z,77.66
2023-01-13T16:26:44.075Z,76.92
2023-01-13T16:29:18.415Z,76.44
2023-01-13T16:31:51.731Z,76.66
2023-01-13T16:34:24.263Z,76.37
2023-01-13T16:37:29.930Z,76.28
2023-01-13T16:40:35.820Z,75.83
2023-01-13T16:43:08.383Z,75.46
2023-01-13T16:45:41.328Z,75.33
2023-01-13T16:48:22.829Z,75.24
2023-01-13T16:50:55.639Z,75.18
2023-01-13T16:53:28.326Z,74.79
2023-01-13T16:56:00.683Z,74.73
2023-01-13T16:58:33.145Z,75.01
2023-01-13T17:01:06.891Z,75.10
2023-01-13T17:03:39.566Z,75.64
2023-01-13T17:06:14.468Z,75.58
2023-01-13T17:08:46.937Z,75.42
2023-01-13T17:11:20.611Z,75.27
2023-01-13T17:13:53.701Z,75.56
2023-01-13T17:16:27.057Z,75.42
2023-01-13T17:18:59.676Z,76.32
2023-01-13T17:21:32.448Z,76.54
2023-01-13T17:24:08.136Z,76.26
2023-01-13T17:26:44.047Z,75.98
2023-01-13T17:33:07.051Z,75.88
2023-01-13T17:35:41.691Z,75.87
2023-01-13T17:38:17.544Z,75.99
2023-01-13T17:43:53.805Z,75.60
2023-01-13T17:46:26.402Z,75.62
2023-01-13T17:49:00.286Z,75.35
2023-01-13T17:51:33.050Z,75.16
2023-01-13T17:54:05.427Z,75.52
2023-01-13T17:56:38.062Z,75.31
2023-01-13T17:59:11.158Z,74.65
2023-01-13T18:01:43.881Z,74.48
2023-01-13T18:04:19.546Z,74.30
2023-01-13T18:06:53.540Z,74.67
2023-01-13T18:09:26.959Z,74.82
2023-01-13T18:11:59.644Z,74.38
2023-01-13T18:14:32.301Z,74.30
2023-01-13T18:17:05.324Z,73.84
2023-01-13T18:19:55.828Z,73.98
2023-01-13T18:22:46.141Z,73.96
2023-01-13T18:25:36.064Z,74.00
2023-01-13T18:28:09.059Z,73.83
2023-01-13T18:30:41.630Z,74.08
2023-01-13T18:33:14.221Z,73.86
2023-01-13T18:35:46.736Z,73.70
2023-01-13T18:38:20.325Z,73.86
2023-01-13T18:40:52.759Z,73.39
2023-01-13T18:43:25.367Z,72.74
2023-01-13T18:45:58.030Z,72.77
2023-01-13T18:48:31.525Z,73.06
2023-01-13T18:51:05.343Z,73.41
2023-01-13T18:53:38.018Z,73.23
2023-01-13T18:56:15.554Z,73.21
2023-01-13T18:59:03.086Z,72.66
2023-01-13T19:01:37.919Z,71.72
2023-01-13T19:04:15.856Z,71.86
2023-01-13T19:06:51.729Z,71.90
2023-01-13T19:09:26.916Z,71.76
2023-01-13T19:12:01.246Z,71.38
2023-01-13T19:14:37.833Z,71.31
2023-01-13T19:17:14.267Z,71.31
2023-01-13T19:19:48.572Z,71.59
2023-01-13T19:22:23.941Z,71.71
2023-01-13T19:24:57.075Z,71.68
2023-01-13T19:27:30.005Z,71.65
2023-01-13T19:30:03.583Z,71.85
2023-01-13T19:32:36.738Z,71.79
2023-01-13T19:35:13.180Z,71.89
2023-01-13T19:37:45.874Z,72.04
2023-01-13T19:40:19.150Z,72.19
2023-01-13T19:43:09.090Z,71.62
2023-01-13T19:45:42.016Z,71.19
2023-01-13T19:48:16.305Z,71.49
2023-01-13T19:50:49.745Z,71.23
2023-01-13T19:53:22.454Z,70.79
2023-01-13T19:56:10.812Z,71.09
2023-01-13T19:58:51.664Z,70.78
2023-01-13T20:01:41.955Z,70.67
2023-01-13T20:04:27.157Z,71.17
2023-01-13T20:07:00.362Z,71.26
2023-01-13T20:09:34.553Z,71.41
2023-01-13T20:12:09.499Z,71.65
2023-01-13T20:14:48.319Z,72.22
2023-01-13T20:17:22.554Z,72.61
2023-01-13T20:19:59.002Z,72.77
2023-01-13T20:22:34.550Z,72.25
2023-01-13T20:25:08.142Z,71.64
2023-01-13T20:27:41.588Z,71.64
2023-01-13T20:30:15.604Z,71.66
2023-01-13T20:32:48.523Z,71.64
2023-01-13T20:35:29.858Z,72.22
2023-01-13T20:38:03.053Z,72.92
2023-01-13T20:40:35.728Z,73.46
2023-01-13T20:43:08.234Z,73.45
2023-01-13T20:45:40.831Z,72.98
2023-01-13T20:48:13.699Z,72.55
2023-01-13T20:50:46.491Z,73.51
2023-01-13T20:53:19.044Z,73.74
2023-01-13T20:55:52.033Z,72.59
2023-01-13T20:58:25.016Z,72.84
2023-01-13T21:01:01.107Z,73.46
2023-01-13T21:03:33.978Z,73.14
2023-01-13T21:06:07.167Z,73.11
2023-01-13T21:08:40.104Z,72.73
2023-01-13T21:11:15.199Z,72.74
2023-01-13T21:14:05.522Z,73.11
2023-01-13T21:16:38.418Z,72.91
2023-01-13T21:19:12.041Z,72.63
2023-01-13T21:21:44.629Z,72.44
2023-01-13T21:24:17.271Z,72.71
2023-01-13T21:26:52.775Z,73.04
2023-01-13T21:29:26.148Z,72.77
2023-01-13T21:32:51.588Z,72.92
2023-01-13T21:36:48.553Z,72.47
2023-01-13T21:39:22.525Z,72.24
2023-01-13T21:42:24.238Z,72.24
2023-01-13T21:45:14.182Z,72.35
2023-01-13T21:47:49.505Z,72.28
2023-01-13T21:50:24.658Z,72.47
2023-01-13T21:52:58.890Z,72.81
2023-01-13T21:55:32.473Z,72.72
2023-01-13T21:58:12.245Z,72.79
2023-01-13T22:00:46.385Z,72.46
2023-01-13T22:03:21.998Z,72.96
2023-01-13T22:05:57.679Z,73.40
2023-01-13T22:08:32.930Z,73.55
2023-01-13T22:11:06.733Z,73.25
2023-01-13T22:13:58.256Z,73.54
2023-01-13T22:16:31.728Z,74.01
2023-01-13T22:19:04.684Z,73.89
2023-01-13T22:21:37.412Z,74.52
2023-01-13T22:24:10.858Z,74.22
2023-01-13T22:26:43.443Z,74.31
2023-01-13T22:29:16.131Z,74.53
2023-01-13T22:31:48.803Z,74.72
2023-01-13T22:34:33.035Z,74.86
2023-01-13T22:37:19.740Z,74.85
2023-01-13T22:39:52.805Z,75.31
2023-01-13T22:42:25.313Z,75.70
2023-01-13T22:44:57.902Z,75.99
2023-01-13T22:47:31.429Z,76.82
2023-01-13T22:50:04.249Z,76.88
2023-01-13T22:52:37.593Z,77.00
2023-01-13T22:55:11.631Z,76.97
2023-01-13T22:57:48.239Z,76.63
2023-01-13T23:00:25.063Z,75.89
2023-01-13T23:02:57.614Z,75.85
2023-01-13T23:05:30.789Z,76.55
2023-01-13T23:08:03.319Z,76.65
2023-01-13T23:10:36.131Z,75.96
2023-01-13T23:13:09.915Z,75.95
2023-01-13T23:15:42.517Z,75.84
2023-01-13T23:18:16.802Z,75.81
2023-01-13T23:20:50.071Z,75.39
2023-01-13T23:23:26.587Z,75.36
2023-01-13T23:26:06.578Z,74.88
2023-01-13T23:28:40.569Z,74.92
2023-01-13T23:31:16.231Z,74.93
2023-01-13T23:33:49.635Z,75.00
2023-01-13T23:36:24.304Z,74.60
2023-01-13T23:38:58.442Z,75.41
2023-01-13T23:41:31.685Z,75.61
2023-01-13T23:44:04.189Z,75.15
2023-01-13T23:46:37.085Z,74.96
2023-01-13T23:49:09.530Z,74.94
2023-01-13T23:51:41.960Z,74.84
2023-01-13T23:54:14.352Z,75.27
2023-01-13T23:56:49.158Z,75.64
2023-01-13T23:59:22.468Z,75.09
